In Rescue
 
Open Full Screen Window  High Contrast Mode
Wind Gusting 00 knots
09
May 25, 2022 8:51 PM EDT
Present Weather: Mist
Weather Information
Wind Direction
  120 °
Wind Speed
  09 kt (10 mph)
Wind Gust
  00 kt (0 mph)
Altimeter
29.84 in
Visibility
5 SM
Temperature
17° C
63° F
Dewpoint
17° C
63° F
Humidity
100%
1hr Rain Fall
00.01 in.
24hr Rain Fall
00.40 in.
Sky Condition
Overcast @ 800 ft
IFR

METAR KLDM 260051Z AUTO 12009KT 5SM BR OVC008 17/17 A2984 RMK AO2 T01710165 P0001

FAA Disclaimer: The data displayed is for advisory purposes only and is not to be used for flight planning or operations.